Time;durP1;ratioP1;P1;durP2;ratioP2;P2;SDS_P1;SDS_P2;PMS_P1;PMS_P2;Temp;Humidity;BMP_temperature;BMP_pressure;BME280_temperature;BME280_humidity;BME280_pressure;Samples;Min_cycle;Max_cycle;Signal;HPM_P1;HPM_P2
2021/07/10 00:01:18;;;;;;;3.27;1.80;;;;;;;19.33;74.51;98209.86;1708685;83;20848;-74
2021/07/10 00:03:44;;;;;;;2.58;1.70;;;;;;;19.31;74.11;98197.03;1708086;83;22019;-74
2021/07/10 00:06:10;;;;;;;1.35;0.90;;;;;;;19.29;72.83;98189.67;1708633;82;20892;-75
2021/07/10 00:08:36;;;;;;;2.10;0.82;;;;;;;19.33;70.59;98182.39;1709217;83;20889;-75
2021/07/10 00:11:04;;;;;;;2.27;0.68;;;;;;;19.38;69.69;98180.80;1709065;83;20868;-74
2021/07/10 00:13:30;;;;;;;5.75;1.15;;;;;;;19.43;68.81;98175.70;1709445;83;21054;-74
2021/07/10 00:15:55;;;;;;;0.55;0.50;;;;;;;19.46;67.58;98181.88;1709938;83;21150;-75
2021/07/10 00:18:21;;;;;;;2.98;0.60;;;;;;;19.52;66.53;98185.25;1708645;83;20852;-73
2021/07/10 00:20:47;;;;;;;0.62;0.60;;;;;;;19.55;66.28;98193.63;1708755;83;21542;-73
2021/07/10 00:23:13;;;;;;;0.80;0.57;;;;;;;19.57;66.13;98202.39;1708902;83;20943;-75
2021/07/10 00:25:39;;;;;;;0.80;0.60;;;;;;;19.61;65.61;98206.64;1707901;83;21071;-74
2021/07/10 00:28:07;;;;;;;1.05;0.70;;;;;;;19.63;65.38;98216.72;1708224;83;21310;-75
2021/07/10 00:30:33;;;;;;;1.27;0.80;;;;;;;19.64;64.13;98220.50;1707423;83;20893;-75
2021/07/10 00:32:59;;;;;;;1.67;0.80;;;;;;;19.66;64.54;98229.24;1709101;83;20972;-73
2021/07/10 00:35:25;;;;;;;2.42;0.70;;;;;;;19.66;64.29;98239.44;1707185;83;21454;-73
2021/07/10 00:37:51;;;;;;;0.75;0.70;;;;;;;19.64;64.07;98252.69;1709601;83;20956;-73
2021/07/10 00:40:17;;;;;;;1.02;0.70;;;;;;;19.61;64.26;98262.98;1708255;83;21327;-74
2021/07/10 00:42:45;;;;;;;2.80;0.80;;;;;;;19.57;64.39;98269.73;1708569;83;21423;-74
2021/07/10 00:45:11;;;;;;;1.57;0.70;;;;;;;19.53;64.24;98269.30;1708556;83;20943;-75
2021/07/10 00:47:37;;;;;;;0.95;0.62;;;;;;;19.50;64.15;98271.35;1708330;83;20952;-75
2021/07/10 00:50:11;;;;;;;1.02;0.62;;;;;;;19.44;64.24;98272.91;1709161;83;21015;-74
2021/07/10 00:52:37;;;;;;;1.32;0.75;;;;;;;19.40;64.22;98269.22;1708202;82;21428;-75
2021/07/10 00:55:04;;;;;;;1.22;0.75;;;;;;;19.36;64.16;98265.51;1707854;83;20938;-75
2021/07/10 00:57:30;;;;;;;1.52;1.00;;;;;;;19.32;64.28;98265.95;1708262;83;20952;-73
2021/07/10 00:59:57;;;;;;;1.85;1.15;;;;;;;19.31;64.11;98270.37;1708409;83;38428;-73
2021/07/10 01:02:23;;;;;;;2.40;1.00;;;;;;;19.27;64.31;98269.44;1708530;83;20967;-75
2021/07/10 01:04:48;;;;;;;0.85;0.75;;;;;;;19.26;64.32;98276.08;1707861;83;21202;-74
2021/07/10 01:07:14;;;;;;;1.10;0.80;;;;;;;19.22;64.43;98277.28;1707503;83;20919;-75
2021/07/10 01:09:40;;;;;;;1.35;1.00;;;;;;;19.20;64.52;98276.81;1709196;83;20940;-75
2021/07/10 01:12:07;;;;;;;3.05;0.98;;;;;;;19.17;64.67;98274.73;1708832;83;20841;-74
2021/07/10 01:14:33;;;;;;;3.65;1.47;;;;;;;19.10;64.96;98272.50;1709911;83;21095;-75
2021/07/10 01:16:59;;;;;;;1.95;1.02;;;;;;;19.05;65.62;98264.43;1710135;83;21008;-74
2021/07/10 01:19:28;;;;;;;6.72;1.40;;;;;;;18.93;66.28;98256.66;1708181;83;20852;-73
2021/07/10 01:21:57;;;;;;;3.70;1.05;;;;;;;18.85;66.77;98267.33;1707212;83;21028;-75
2021/07/10 01:24:24;;;;;;;2.02;1.00;;;;;;;18.80;66.95;98270.81;1707397;83;21033;-73
2021/07/10 01:26:50;;;;;;;1.00;0.90;;;;;;;18.74;67.58;98274.31;1709431;83;21516;-75
2021/07/10 01:29:17;;;;;;;2.80;0.98;;;;;;;18.66;68.40;98271.02;1707618;83;22004;-73
2021/07/10 01:31:43;;;;;;;1.30;0.90;;;;;;;18.52;69.31;98270.37;1708095;83;21034;-75
2021/07/10 01:34:08;;;;;;;1.72;1.10;;;;;;;18.47;68.91;98274.10;1708849;83;21573;-75
2021/07/10 01:36:34;;;;;;;1.27;0.90;;;;;;;18.48;68.67;98274.91;1707970;83;20915;-73
2021/07/10 01:39:03;;;;;;;2.42;1.10;;;;;;;18.50;68.43;98268.52;1708332;83;21062;-75
2021/07/10 01:41:29;;;;;;;1.92;1.17;;;;;;;18.51;68.39;98270.13;1708890;83;21318;-74
2021/07/10 01:43:55;;;;;;;2.85;0.93;;;;;;;18.49;68.79;98271.83;1707636;83;20883;-76
2021/07/10 01:46:21;;;;;;;2.02;0.90;;;;;;;18.49;68.61;98272.40;1707839;82;20888;-74
2021/07/10 01:48:47;;;;;;;0.85;0.78;;;;;;;18.46;69.49;98264.83;1707050;83;20915;-75
2021/07/10 01:51:12;;;;;;;1.35;0.88;;;;;;;18.43;69.09;98257.23;1708142;83;20845;-74
2021/07/10 01:53:38;;;;;;;1.47;0.90;;;;;;;18.42;69.25;98255.63;1708508;83;21317;-74
2021/07/10 01:56:04;;;;;;;1.62;1.05;;;;;;;18.34;68.75;98258.61;1708501;83;20911;-76
2021/07/10 01:58:31;;;;;;;0.95;0.72;;;;;;;18.35;68.80;98258.84;1709880;83;20932;-74
2021/07/10 02:00:57;;;;;;;2.52;0.90;;;;;;;18.38;68.93;98261.53;1709082;83;21118;-76
2021/07/10 02:03:23;;;;;;;1.98;1.25;;;;;;;18.33;68.91;98259.18;1708734;82;21023;-76
2021/07/10 02:05:49;;;;;;;5.62;0.95;;;;;;;18.26;68.89;98252.00;1709059;83;21278;-74
2021/07/10 02:08:15;;;;;;;1.85;1.05;;;;;;;18.23;69.30;98250.48;1707357;83;20876;-74
2021/07/10 02:10:41;;;;;;;4.25;1.40;;;;;;;18.25;68.99;98249.02;1707066;83;21010;-76
2021/07/10 02:13:10;;;;;;;1.15;0.80;;;;;;;18.28;68.87;98246.99;1707849;83;20841;-74
2021/07/10 02:15:36;;;;;;;2.75;1.22;;;;;;;18.29;68.79;98243.14;1708213;82;21047;-76
2021/07/10 02:18:02;;;;;;;2.90;1.37;;;;;;;18.33;68.82;98254.27;1708209;83;21041;-75
2021/07/10 02:20:28;;;;;;;2.02;1.15;;;;;;;18.35;68.88;98253.93;1709834;83;21474;-74
2021/07/10 02:22:56;;;;;;;2.77;1.32;;;;;;;18.35;69.29;98261.59;1707526;83;20876;-76
2021/07/10 02:25:22;;;;;;;1.50;0.90;;;;;;;18.16;69.58;98260.56;1709371;83;21480;-74
2021/07/10 02:27:49;;;;;;;2.20;1.55;;;;;;;18.04;70.27;98258.48;1709569;82;20908;-74
2021/07/10 02:30:26;;;;;;;1.32;0.80;;;;;;;17.90;70.65;98257.02;1707006;82;21939;-73
2021/07/10 02:32:54;;;;;;;2.20;1.27;;;;;;;17.87;70.74;98261.78;1708859;83;21000;-73
2021/07/10 02:35:20;;;;;;;2.52;0.90;;;;;;;17.81;70.76;98276.20;1708325;83;20967;-75
2021/07/10 02:37:47;;;;;;;1.32;1.00;;;;;;;17.78;72.07;98273.30;1708992;83;20968;-73
2021/07/10 02:40:14;;;;;;;1.95;0.90;;;;;;;17.78;71.90;98276.84;1709827;83;21035;-75
2021/07/10 02:42:40;;;;;;;1.98;1.10;;;;;;;17.83;72.14;98278.61;1708761;83;21256;-73
2021/07/10 02:45:08;;;;;;;1.30;1.02;;;;;;;17.86;71.58;98277.95;1707900;83;20979;-75
2021/07/10 02:47:34;;;;;;;1.98;1.17;;;;;;;17.94;71.63;98282.64;1709186;83;21400;-73
2021/07/10 02:50:01;;;;;;;5.65;0.98;;;;;;;17.93;71.45;98286.52;1707531;83;20833;-73
2021/07/10 02:52:27;;;;;;;1.50;0.90;;;;;;;17.88;71.83;98281.20;1708434;83;20980;-75
2021/07/10 02:54:53;;;;;;;4.55;0.88;;;;;;;17.86;71.67;98276.05;1707506;83;21932;-75
2021/07/10 02:57:19;;;;;;;2.10;0.93;;;;;;;17.91;71.65;98270.97;1707276;83;20863;-73
2021/07/10 02:59:45;;;;;;;2.95;1.22;;;;;;;17.90;72.02;98273.46;1707514;83;21620;-75
2021/07/10 03:02:11;;;;;;;5.55;1.30;;;;;;;17.98;71.84;98274.03;1708172;82;20927;-73
2021/07/10 03:04:38;;;;;;;3.20;1.47;;;;;;;17.99;72.50;98265.48;1708386;83;21115;-75
2021/07/10 03:07:05;;;;;;;0.75;0.75;;;;;;;18.03;72.08;98266.47;1708464;83;21137;-73
2021/07/10 03:09:30;;;;;;;2.37;0.95;;;;;;;18.06;71.97;98269.13;1708953;83;21373;-75
2021/07/10 03:11:57;;;;;;;1.50;1.07;;;;;;;18.06;72.04;98266.95;1708298;83;20944;-75
2021/07/10 03:14:22;;;;;;;6.62;1.62;;;;;;;18.04;71.88;98270.81;1708341;83;21051;-75
2021/07/10 03:16:48;;;;;;;2.02;1.25;;;;;;;17.99;72.23;98263.31;1707974;83;20919;-75
2021/07/10 03:19:14;;;;;;;1.62;0.93;;;;;;;17.93;73.03;98265.39;1708108;83;21015;-75
2021/07/10 03:21:42;;;;;;;2.33;1.10;;;;;;;17.87;72.99;98269.44;1709977;83;20972;-75
2021/07/10 03:24:08;;;;;;;1.70;0.93;;;;;;;17.89;72.62;98270.48;1710363;83;21106;-73
2021/07/10 03:26:34;;;;;;;11.12;9.98;;;;;;;17.89;72.60;98272.66;1708298;83;20972;-74
2021/07/10 03:29:00;;;;;;;5.47;3.15;;;;;;;17.91;72.43;98277.25;1709817;83;20891;-75
2021/07/10 03:31:26;;;;;;;5.00;3.67;;;;;;;17.95;72.51;98278.23;1710041;83;21297;-73
2021/07/10 03:33:52;;;;;;;53.73;46.73;;;;;;;17.93;72.23;98275.55;1710602;82;20978;-73
2021/07/10 03:36:18;;;;;;;24.07;21.48;;;;;;;17.93;72.05;98283.78;1708051;83;20888;-73
2021/07/10 03:38:44;;;;;;;5.72;3.85;;;;;;;17.99;71.81;98281.13;1710087;83;20859;-74
2021/07/10 03:41:13;;;;;;;5.30;3.42;;;;;;;18.07;71.47;98277.59;1761005;81;20952;-75
2021/07/10 03:43:40;;;;;;;5.75;4.40;;;;;;;18.10;71.11;98274.75;1760095;81;21232;-75
2021/07/10 03:46:06;;;;;;;2.52;2.00;;;;;;;18.15;71.00;98280.09;1759640;81;20948;-73
2021/07/10 03:48:31;;;;;;;4.28;1.05;;;;;;;18.18;70.87;98280.23;1759614;81;20907;-73
2021/07/10 03:50:59;;;;;;;1.87;1.42;;;;;;;18.22;70.71;98278.48;1760117;81;21380;-74
2021/07/10 03:53:25;;;;;;;3.65;1.10;;;;;;;18.20;71.18;98280.74;1760220;81;21046;-75
2021/07/10 03:55:51;;;;;;;3.42;1.50;;;;;;;18.22;70.96;98289.45;1760093;81;21168;-74
2021/07/10 03:58:17;;;;;;;3.20;1.32;;;;;;;18.27;70.90;98283.78;1759810;81;21550;-74
2021/07/10 04:00:43;;;;;;;2.27;1.37;;;;;;;18.34;70.95;98283.30;1760012;81;20849;-75
2021/07/10 04:03:09;;;;;;;1.30;1.02;;;;;;;18.45;70.87;98288.69;1759895;81;20920;-74
2021/07/10 04:05:35;;;;;;;6.05;1.70;;;;;;;18.62;70.65;98285.11;1760005;81;20936;-75
2021/07/10 04:08:01;;;;;;;2.80;1.02;;;;;;;18.68;69.85;98277.55;1759699;81;20984;-74
2021/07/10 04:10:27;;;;;;;5.62;4.37;;;;;;;18.69;69.44;98272.30;1759702;81;21389;-75
2021/07/10 04:12:53;;;;;;;2.67;1.60;;;;;;;18.74;68.99;98279.80;1759822;81;20939;-74
2021/07/10 04:15:19;;;;;;;2.83;1.02;;;;;;;18.99;68.51;98277.31;1760022;81;20849;-75
2021/07/10 04:17:46;;;;;;;2.10;1.32;;;;;;;19.13;67.93;98275.95;1759598;81;20944;-75
2021/07/10 04:20:12;;;;;;;2.22;1.30;;;;;;;19.17;68.05;98276.11;1760163;81;21910;-75
2021/07/10 04:22:38;;;;;;;3.35;1.25;;;;;;;19.25;67.88;98277.21;1759547;81;21012;-74
2021/07/10 04:25:07;;;;;;;2.15;1.30;;;;;;;19.27;67.88;98277.11;1739953;81;20963;-74
2021/07/10 04:27:33;;;;;;;2.67;1.75;;;;;;;19.17;67.78;98277.48;1759857;81;21004;-74
2021/07/10 04:29:59;;;;;;;18.17;9.00;;;;;;;18.96;68.02;98286.99;1760539;81;20897;-75
2021/07/10 04:32:25;;;;;;;3.95;2.00;;;;;;;18.96;68.25;98292.48;1755669;81;21025;-74
2021/07/10 04:34:51;;;;;;;2.50;1.90;;;;;;;18.84;67.75;98300.04;1736003;81;20915;-74
2021/07/10 04:37:17;;;;;;;1.90;1.20;;;;;;;18.86;68.05;98299.70;1755128;81;21483;-75
2021/07/10 04:39:43;;;;;;;1.85;1.25;;;;;;;18.92;67.88;98300.34;1755370;81;20845;-75
2021/07/10 04:42:09;;;;;;;2.45;1.60;;;;;;;18.87;67.76;98302.69;1755207;81;20953;-75
2021/07/10 04:44:35;;;;;;;3.67;1.72;;;;;;;18.85;67.75;98305.77;1755406;81;21194;-74
2021/07/10 04:47:01;;;;;;;2.10;1.30;;;;;;;18.92;67.83;98304.47;1755059;81;20905;-75
2021/07/10 04:49:28;;;;;;;4.58;2.47;;;;;;;19.01;67.85;98311.55;1755339;81;20929;-75
2021/07/10 04:51:54;;;;;;;3.22;1.70;;;;;;;19.07;67.74;98314.93;1755244;81;20849;-74
2021/07/10 04:54:20;;;;;;;1.32;0.93;;;;;;;19.13;67.63;98313.59;1755038;81;21539;-75
2021/07/10 04:56:46;;;;;;;1.22;0.90;;;;;;;19.20;67.42;98321.33;1754897;81;21163;-75
2021/07/10 04:59:12;;;;;;;3.30;1.22;;;;;;;19.24;67.15;98318.18;1755416;81;20840;-74
2021/07/10 05:01:38;;;;;;;3.83;1.20;;;;;;;19.31;67.06;98315.70;1755253;81;20919;-75
2021/07/10 05:04:04;;;;;;;4.65;1.50;;;;;;;19.35;66.71;98317.48;1755355;81;20837;-74
2021/07/10 05:06:30;;;;;;;9.80;3.70;;;;;;;19.47;66.65;98321.45;1755273;81;20885;-75
2021/07/10 05:08:56;;;;;;;5.83;2.35;;;;;;;19.50;66.41;98319.44;1755048;81;21178;-75
2021/07/10 05:11:21;;;;;;;4.60;1.90;;;;;;;19.71;66.42;98318.38;1754688;81;21483;-75
2021/07/10 05:13:47;;;;;;;2.42;1.00;;;;;;;19.85;65.46;98321.45;1754959;81;20849;-75
2021/07/10 05:16:13;;;;;;;2.00;1.32;;;;;;;19.93;64.83;98322.78;1755255;81;20900;-74
2021/07/10 05:18:39;;;;;;;2.17;1.00;;;;;;;20.14;64.95;98322.78;1755074;81;20853;-74
2021/07/10 05:21:05;;;;;;;1.47;0.90;;;;;;;20.29;63.19;98321.38;1755219;81;21117;-74
2021/07/10 05:23:31;;;;;;;1.12;0.90;;;;;;;20.36;63.28;98320.28;1755213;81;20941;-75
2021/07/10 05:25:57;;;;;;;1.37;0.75;;;;;;;20.33;62.57;98324.25;1755412;81;20944;-74
2021/07/10 05:28:23;;;;;;;2.12;1.00;;;;;;;20.53;62.94;98316.60;1734922;81;20873;-74
2021/07/10 05:30:50;;;;;;;5.67;1.17;;;;;;;20.21;61.19;98324.44;1754846;81;20970;-74
2021/07/10 05:33:17;;;;;;;4.75;1.05;;;;;;;20.20;62.18;98330.28;1755379;81;21232;-75
2021/07/10 05:35:46;;;;;;;1.57;0.90;;;;;;;20.05;62.31;98328.92;1755205;81;21049;-74
2021/07/10 05:38:13;;;;;;;3.92;1.00;;;;;;;20.13;62.51;98331.37;1754885;81;20896;-73
2021/07/10 05:40:39;;;;;;;1.90;1.00;;;;;;;20.19;62.66;98328.67;1755086;81;20965;-73
2021/07/10 05:43:05;;;;;;;1.27;1.00;;;;;;;20.45;62.62;98332.62;1754782;81;20968;-74
2021/07/10 05:45:31;;;;;;;2.37;1.20;;;;;;;20.59;62.15;98333.70;1754951;81;21934;-73
2021/07/10 05:47:57;;;;;;;2.85;0.70;;;;;;;20.71;60.71;98332.38;1754484;81;20857;-74
2021/07/10 05:50:23;;;;;;;2.00;1.02;;;;;;;20.73;60.79;98332.84;1755315;81;20990;-74
2021/07/10 05:52:49;;;;;;;1.85;0.75;;;;;;;20.65;60.45;98337.28;1755016;81;20869;-75
2021/07/10 05:55:15;;;;;;;7.80;1.50;;;;;;;20.52;60.06;98339.77;1755399;81;20960;-75
2021/07/10 05:57:40;;;;;;;3.30;1.00;;;;;;;20.62;60.10;98346.23;1755021;81;21311;-74
2021/07/10 06:00:08;;;;;;;2.75;1.30;;;;;;;20.40;59.62;98340.47;1755270;81;20853;-74
2021/07/10 06:02:34;;;;;;;0.98;0.53;;;;;;;20.25;59.64;98346.02;1755363;81;20964;-74
2021/07/10 06:05:00;;;;;;;1.72;0.88;;;;;;;20.39;60.29;98340.80;1755217;81;20987;-73
2021/07/10 06:07:26;;;;;;;1.92;1.02;;;;;;;20.28;60.22;98343.16;1754860;81;21333;-74
2021/07/10 06:09:52;;;;;;;3.85;0.90;;;;;;;20.34;60.14;98342.38;1755163;81;21038;-74
2021/07/10 06:12:18;;;;;;;2.42;0.98;;;;;;;20.41;60.29;98341.27;1754986;81;20833;-73
2021/07/10 06:14:44;;;;;;;1.92;0.75;;;;;;;20.53;60.11;98349.63;1755221;81;21526;-74
2021/07/10 06:17:10;;;;;;;1.42;0.75;;;;;;;20.75;59.99;98342.37;1755085;81;20876;-74
2021/07/10 06:19:36;;;;;;;1.25;0.75;;;;;;;20.89;59.25;98355.85;1755320;81;20932;-74
2021/07/10 06:22:02;;;;;;;1.37;1.10;;;;;;;20.97;58.76;98352.78;1754926;81;21065;-73
2021/07/10 06:24:28;;;;;;;2.87;1.70;;;;;;;20.70;58.06;98365.20;1755013;81;20893;-74
2021/07/10 06:26:54;;;;;;;1.00;0.80;;;;;;;20.71;58.63;98360.72;1755100;81;20857;-74
2021/07/10 06:29:20;;;;;;;1.87;1.00;;;;;;;20.50;59.52;98364.05;1754778;81;20884;-73
2021/07/10 06:31:46;;;;;;;3.77;1.12;;;;;;;20.33;60.27;98361.40;1755063;81;20936;-74
2021/07/10 06:34:12;;;;;;;1.45;1.10;;;;;;;20.19;60.51;98361.69;1754625;81;21093;-74
2021/07/10 06:36:39;;;;;;;2.40;1.22;;;;;;;19.88;61.00;98359.28;1755074;81;20971;-74
2021/07/10 06:39:05;;;;;;;3.50;1.30;;;;;;;20.03;60.98;98354.58;1754849;81;21004;-74
2021/07/10 06:41:31;;;;;;;1.87;1.10;;;;;;;20.00;61.11;98358.81;1755010;81;20860;-74
2021/07/10 06:43:57;;;;;;;2.00;0.98;;;;;;;19.73;61.32;98362.02;1754689;81;21004;-73
2021/07/10 06:46:23;;;;;;;1.92;1.02;;;;;;;19.73;61.47;98355.95;1755416;81;21135;-74
2021/07/10 06:48:49;;;;;;;2.08;1.35;;;;;;;19.68;62.15;98354.78;1754878;81;21621;-74
2021/07/10 06:51:16;;;;;;;2.45;1.30;;;;;;;19.75;61.77;98364.47;1755241;81;20888;-74
2021/07/10 06:53:44;;;;;;;3.65;1.10;;;;;;;19.77;62.07;98358.86;1755120;81;21456;-74
2021/07/10 06:56:09;;;;;;;3.10;1.10;;;;;;;19.79;62.23;98365.39;1755614;81;20909;-75
2021/07/10 06:58:35;;;;;;;5.08;1.67;;;;;;;19.74;61.94;98359.53;1755209;81;22025;-74
2021/07/10 07:01:01;;;;;;;2.22;1.22;;;;;;;20.04;61.57;98363.06;1755450;81;20841;-75
2021/07/10 07:03:27;;;;;;;2.20;0.98;;;;;;;20.16;60.89;98360.95;1755508;81;20932;-74
2021/07/10 07:05:53;;;;;;;1.30;0.95;;;;;;;20.13;60.15;98360.26;1755244;81;20968;-74
2021/07/10 07:08:19;;;;;;;1.92;1.02;;;;;;;20.46;60.29;98359.80;1755266;81;20857;-75
2021/07/10 07:10:45;;;;;;;1.80;1.00;;;;;;;20.75;59.97;98363.02;1755353;81;22006;-75
2021/07/10 07:13:11;;;;;;;3.45;1.25;;;;;;;20.88;58.57;98358.95;1754835;81;20857;-74
2021/07/10 07:15:38;;;;;;;2.08;1.15;;;;;;;20.99;59.30;98358.75;1755456;81;22588;-74
2021/07/10 07:18:04;;;;;;;2.72;1.07;;;;;;;21.18;58.17;98365.11;1754969;81;20995;-74
2021/07/10 07:20:30;;;;;;;7.10;2.25;;;;;;;21.16;58.25;98357.76;1755418;81;20805;-75
2021/07/10 07:22:56;;;;;;;2.62;1.15;;;;;;;21.64;57.61;98356.48;1755019;81;21153;-75
2021/07/10 07:25:22;;;;;;;2.30;1.30;;;;;;;21.97;55.66;98358.32;1755301;81;20833;-75
2021/07/10 07:27:50;;;;;;;1.37;1.00;;;;;;;22.05;55.29;98359.32;1755112;81;20917;-75
2021/07/10 07:30:17;;;;;;;1.37;0.80;;;;;;;22.04;54.55;98365.41;1755589;81;21385;-75
2021/07/10 07:32:42;;;;;;;1.27;0.88;;;;;;;22.44;55.23;98360.55;1758034;81;21117;-74
2021/07/10 07:35:10;;;;;;;4.92;1.10;;;;;;;22.82;54.20;98361.47;1760192;81;21370;-75
2021/07/10 07:37:36;;;;;;;1.72;1.17;;;;;;;23.14;52.65;98365.11;1759745;81;21005;-75
2021/07/10 07:40:05;;;;;;;5.85;1.98;;;;;;;23.77;52.29;98363.01;1739724;81;21549;-75
2021/07/10 07:42:31;;;;;;;4.40;2.22;;;;;;;24.56;51.18;98361.45;1759508;81;22172;-75
2021/07/10 07:44:57;;;;;;;3.42;1.00;;;;;;;24.17;47.58;98358.59;1759807;81;20893;-75
2021/07/10 07:47:24;;;;;;;2.08;0.78;;;;;;;23.44;50.22;98369.66;1759790;81;21239;-75
2021/07/10 07:49:49;;;;;;;4.20;1.20;;;;;;;23.99;48.20;98357.38;1760075;81;21630;-75
2021/07/10 07:52:15;;;;;;;2.02;1.12;;;;;;;24.20;47.52;98359.27;1760274;81;20948;-75
2021/07/10 07:54:41;;;;;;;1.17;1.00;;;;;;;24.06;48.06;98357.55;1759735;81;20900;-75
2021/07/10 07:57:07;;;;;;;1.05;0.90;;;;;;;23.51;48.03;98360.75;1759983;81;20821;-75
2021/07/10 07:59:33;;;;;;;1.55;0.88;;;;;;;23.84;48.49;98357.62;1759853;81;21228;-75
2021/07/10 08:01:59;;;;;;;1.70;0.95;;;;;;;24.34;49.05;98361.56;1759955;81;20908;-75
2021/07/10 08:04:25;;;;;;;6.25;4.83;;;;;;;24.18;47.66;98355.48;1759778;81;20992;-75
2021/07/10 08:06:51;;;;;;;2.77;1.50;;;;;;;24.22;48.97;98354.16;1759979;81;20904;-75
2021/07/10 08:09:17;;;;;;;5.75;2.27;;;;;;;25.04;47.53;98349.00;1760020;81;20841;-75
2021/07/10 08:11:43;;;;;;;2.65;1.17;;;;;;;25.56;45.00;98354.48;1759604;81;21213;-76
2021/07/10 08:14:10;;;;;;;2.27;0.90;;;;;;;25.83;44.66;98353.95;1759607;81;20900;-76
2021/07/10 08:16:36;;;;;;;1.30;1.05;;;;;;;25.31;44.26;98346.52;1760487;81;20965;-76
2021/07/10 08:19:03;;;;;;;2.87;1.00;;;;;;;25.54;44.78;98354.03;1759766;81;21349;-76
2021/07/10 08:21:29;;;;;;;1.60;1.10;;;;;;;26.30;44.63;98347.09;1759872;81;20936;-76
2021/07/10 08:23:55;;;;;;;3.67;1.50;;;;;;;26.75;43.23;98343.92;1759951;81;21444;-76
2021/07/10 08:26:22;;;;;;;2.08;1.20;;;;;;;27.10;43.07;98345.77;1759903;81;20933;-76
2021/07/10 08:28:47;;;;;;;4.53;1.75;;;;;;;27.74;41.30;98349.75;1759804;81;20905;-76
2021/07/10 08:31:13;;;;;;;1.22;0.88;;;;;;;28.25;40.72;98353.09;1759727;81;21458;-76
2021/07/10 08:33:39;;;;;;;2.42;1.10;;;;;;;28.01;39.43;98347.55;1755669;81;20935;-76
2021/07/10 08:36:07;;;;;;;2.50;1.00;;;;;;;28.41;40.22;98342.47;1755274;81;21201;-75
2021/07/10 08:38:34;;;;;;;;;;;;;;;28.62;40.09;98345.34;1757622;81;21413;-76
2021/07/10 08:41:03;;;;;;;1.92;1.10;;;;;;;28.33;39.58;98335.25;1755471;81;20142;-76
2021/07/10 08:43:28;;;;;;;2.08;1.05;;;;;;;28.04;39.20;98345.41;1755087;81;20901;-76
2021/07/10 08:45:54;;;;;;;1.20;0.80;;;;;;;28.56;37.63;98346.92;1755413;81;20957;-76
2021/07/10 08:48:22;;;;;;;1.52;1.05;;;;;;;28.09;37.83;98347.22;1755177;81;21063;-76
2021/07/10 08:50:48;;;;;;;1.62;0.82;;;;;;;28.09;38.07;98343.63;1755281;81;20900;-76
2021/07/10 08:53:14;;;;;;;3.77;1.65;;;;;;;28.78;37.90;98348.39;1755083;81;20928;-76
2021/07/10 08:55:40;;;;;;;3.30;1.42;;;;;;;29.47;36.76;98345.39;1755500;81;20834;-76
2021/07/10 08:58:06;;;;;;;2.40;1.30;;;;;;;29.29;37.39;98343.17;1755549;81;20880;-77
2021/07/10 09:00:38;;;;;;;3.90;1.25;;;;;;;29.43;36.88;98348.19;1755314;81;21892;-76
2021/07/10 09:03:06;;;;;;;2.27;1.35;;;;;;;29.66;35.42;98347.05;1754917;81;20948;-76
2021/07/10 09:05:32;;;;;;;2.70;2.20;;;;;;;29.67;35.64;98354.22;1755161;81;21012;-76
2021/07/10 09:08:27;;;;;;;3.92;2.55;;;;;;;30.46;34.97;98350.73;1754890;81;20915;-76
2021/07/10 09:11:13;;;;;;;1.70;1.10;;;;;;;30.36;33.77;98354.36;1755154;81;21007;-76
2021/07/10 09:13:43;;;;;;;4.30;1.20;;;;;;;30.09;34.93;98349.84;1755015;81;21792;-77
2021/07/10 09:16:19;;;;;;;1.20;0.88;;;;;;;29.67;34.42;98338.87;1755112;81;20901;-75
2021/07/10 09:18:50;;;;;;;2.45;0.90;;;;;;;28.58;35.75;98345.13;1754934;81;21020;-76
2021/07/10 09:21:48;;;;;;;11.12;2.10;;;;;;;28.14;37.63;98354.42;1755254;81;20973;-76
2021/07/10 09:24:33;;;;;;;4.85;1.22;;;;;;;29.43;36.11;98352.38;1755150;81;20973;-75
2021/07/10 09:27:06;;;;;;;5.62;2.72;;;;;;;30.19;35.19;98347.02;1754407;81;21298;-75
2021/07/10 09:29:43;;;;;;;5.00;3.22;;;;;;;29.86;34.86;98343.23;1755127;81;21278;-76
2021/07/10 09:32:12;;;;;;;2.72;1.02;;;;;;;30.52;33.24;98338.74;1755346;80;20905;-77
2021/07/10 09:34:45;;;;;;;2.65;2.02;;;;;;;30.26;33.80;98343.41;1759591;81;21030;-77
2021/07/10 09:37:23;;;;;;;4.25;1.10;;;;;;;29.71;34.36;98336.86;1754842;81;20929;-75
2021/07/10 09:40:06;;;;;;;2.90;1.10;;;;;;;29.71;34.36;98336.86;1755006;81;21339;-76
2021/07/10 09:42:39;;;;;;;1.65;0.90;;;;;;;30.96;32.92;98348.56;1754970;81;20953;-76
2021/07/10 09:45:09;;;;;;;1.42;1.15;;;;;;;31.40;32.38;98349.31;1755184;81;20961;-76
2021/07/10 09:47:43;;;;;;;2.25;1.15;;;;;;;32.47;31.54;98346.18;1752771;81;20972;-76
2021/07/10 09:50:11;;;;;;;1.17;0.85;;;;;;;32.17;29.56;98339.88;1755044;81;21016;-76
2021/07/10 09:52:37;;;;;;;4.62;1.27;;;;;;;31.77;30.33;98345.05;1733677;81;21108;-76
2021/07/10 09:55:07;;;;;;;2.30;1.00;;;;;;;31.85;31.06;98347.19;1754859;81;20993;-76
2021/07/10 09:57:35;;;;;;;1.22;0.72;;;;;;;31.44;31.17;98344.47;1754806;81;21424;-76
2021/07/10 10:00:08;;;;;;;1.25;1.05;;;;;;;31.93;30.86;98338.91;1755133;81;20952;-76
2021/07/10 10:02:45;;;;;;;2.62;1.17;;;;;;;30.24;32.26;98340.20;1754855;81;20964;-76
2021/07/10 10:05:13;;;;;;;4.15;0.95;;;;;;;30.71;32.59;98341.69;1754958;81;21165;-76
2021/07/10 10:07:56;;;;;;;1.37;0.88;;;;;;;31.98;31.00;98339.87;1754840;81;21048;-76
2021/07/10 10:10:31;;;;;;;1.52;0.75;;;;;;;32.87;29.16;98335.31;1755075;81;20913;-76
2021/07/10 10:13:08;;;;;;;3.45;1.10;;;;;;;32.08;31.37;98340.37;1754977;81;21412;-76
2021/07/10 10:15:43;;;;;;;1.10;0.78;;;;;;;32.37;30.44;98348.50;1755339;81;20964;-77
2021/07/10 10:18:18;;;;;;;1.05;0.90;;;;;;;31.14;31.38;98352.66;1754925;81;21279;-75
2021/07/10 10:20:44;;;;;;;2.50;1.10;;;;;;;29.33;34.41;98346.19;1755231;81;20957;-77
2021/07/10 10:23:10;;;;;;;1.65;1.10;;;;;;;28.16;36.68;98347.86;1754993;81;21324;-77
2021/07/10 10:25:37;;;;;;;3.98;1.20;;;;;;;28.16;36.68;98347.86;1755070;81;20988;-77
2021/07/10 10:28:09;;;;;;;3.72;1.20;;;;;;;27.41;37.52;98354.20;1755079;81;21043;-77
2021/07/10 10:30:35;;;;;;;3.05;1.22;;;;;;;26.85;39.13;98348.83;1755054;81;21693;-76
2021/07/10 10:33:01;;;;;;;1.77;1.10;;;;;;;26.87;38.86;98347.86;1755205;81;20903;-76
2021/07/10 10:38:08;;;;;;;1.30;1.00;;;;;;;27.74;38.11;98349.16;1885268;74;22536;-75
2021/07/10 10:40:34;;;;;;;1.77;0.90;;;;;;;28.24;36.96;98341.74;1822838;77;20929;-75
2021/07/10 10:43:01;;;;;;;1.82;1.37;;;;;;;28.85;36.17;98343.64;1853600;77;21294;-75
2021/07/10 10:45:34;;;;;;;1.82;1.00;;;;;;;29.73;33.80;98347.81;1853750;77;20831;-75
2021/07/10 10:48:00;;;;;;;2.60;1.32;;;;;;;30.52;32.94;98345.73;1821037;77;20903;-76
2021/07/10 10:50:37;;;;;;;2.85;1.07;;;;;;;28.61;35.74;98336.77;1853650;77;21309;-76
2021/07/10 10:53:06;;;;;;;3.98;1.10;;;;;;;27.64;37.49;98348.45;1822746;77;20952;-75
2021/07/10 10:55:35;;;;;;;;;;;;;;;27.38;38.65;98345.84;1856497;77;20959;-74
2021/07/10 10:58:14;;;;;;;0.98;0.85;;;;;;;27.05;39.10;98342.52;1853262;77;20469;-75
2021/07/10 11:00:42;;;;;;;2.08;1.20;;;;;;;29.34;35.60;98331.63;1825901;77;21381;-75
2021/07/10 11:03:11;;;;;;;1.52;1.00;;;;;;;30.88;32.36;98333.02;1853513;77;20899;-76
2021/07/10 11:05:45;;;;;;;2.65;1.00;;;;;;;32.06;31.14;98336.41;1853651;77;21366;-76
2021/07/10 11:08:29;;;;;;;3.52;1.50;;;;;;;33.01;29.63;98335.92;1853333;77;21153;-76
2021/07/10 11:11:03;;;;;;;1.32;0.85;;;;;;;33.43;29.11;98331.54;1853552;77;20938;-77
2021/07/10 11:13:58;;;;;;;2.15;1.25;;;;;;;32.42;29.92;98323.62;1853567;77;21327;-76
2021/07/10 11:16:24;;;;;;;2.10;1.00;;;;;;;31.72;31.31;98326.67;1853079;77;20890;-75
2021/07/10 11:19:00;;;;;;;2.67;1.47;;;;;;;29.27;34.16;98330.23;1853534;77;20822;-75
2021/07/10 11:21:38;;;;;;;1.30;1.00;;;;;;;30.62;32.40;98323.13;1853763;77;22226;-76
2021/07/10 11:24:21;;;;;;;4.05;1.77;;;;;;;32.08;30.63;98327.77;1853459;77;20958;-76
2021/07/10 11:26:57;;;;;;;2.27;1.22;;;;;;;32.29;30.05;98322.52;1853474;77;20941;-76
2021/07/10 11:29:37;;;;;;;1.03;0.70;;;;;;;33.26;27.88;98320.73;1853911;77;20925;-76
2021/07/10 11:32:16;;;;;;;2.15;0.90;;;;;;;33.99;27.09;98319.17;1853254;77;20950;-77
2021/07/10 11:34:48;;;;;;;2.05;0.95;;;;;;;34.34;27.01;98314.27;1853601;77;21102;-76
2021/07/10 11:37:20;;;;;;;1.35;0.82;;;;;;;35.29;26.13;98318.31;1854758;77;20914;-76
2021/07/10 11:40:07;;;;;;;4.20;0.90;;;;;;;35.43;24.93;98310.97;1856433;77;20957;-77